createdAt,value
2024-03-01T00:01:36.032Z,99569.63
2024-03-01T00:04:05.081Z,99568.84
2024-03-01T00:06:34.478Z,99568.09
2024-03-01T00:09:03.478Z,99572.16
2024-03-01T00:11:33.977Z,99572.94
2024-03-01T00:14:02.826Z,99578.53
2024-03-01T00:16:32.286Z,99583.63
2024-03-01T00:19:01.292Z,99586.44
2024-03-01T00:21:30.365Z,99579.03
2024-03-01T00:23:59.261Z,99593.31
2024-03-01T00:26:28.566Z,99592.09
2024-03-01T00:28:57.562Z,99598.47
2024-03-01T00:31:26.521Z,99601.25
2024-03-01T00:33:56.888Z,99595.66
2024-03-01T00:36:25.931Z,99605.59
2024-03-01T00:38:54.815Z,99605.09
2024-03-01T00:41:23.927Z,99610.44
2024-03-01T00:43:52.843Z,99616.81
2024-03-01T00:46:23.261Z,99622.94
2024-03-01T00:48:56.410Z,99626.00
2024-03-01T00:51:25.451Z,99626.75
2024-03-01T00:53:54.484Z,99624.72
2024-03-01T00:56:23.458Z,99636.19
2024-03-01T00:58:52.609Z,99642.56
2024-03-01T01:01:21.911Z,99649.97
2024-03-01T01:03:51.069Z,99655.06
2024-03-01T01:06:20.142Z,99656.59
2024-03-01T01:08:49.211Z,99661.47
2024-03-01T01:11:18.290Z,99664.03
2024-03-01T01:13:47.177Z,99672.97
2024-03-01T01:16:16.236Z,99679.06
2024-03-01T01:18:45.218Z,99680.34
2024-03-01T01:21:14.141Z,99681.41
2024-03-01T01:23:43.085Z,99692.88
2024-03-01T01:26:12.036Z,99690.34
2024-03-01T01:28:41.417Z,99700.53
2024-03-01T01:31:10.458Z,99702.88
2024-03-01T01:33:39.421Z,99705.66
2024-03-01T01:36:08.373Z,99709.75
2024-03-01T01:38:37.412Z,99716.63
2024-03-01T01:41:06.566Z,99717.66
2024-03-01T01:43:37.707Z,99722.25
2024-03-01T01:46:07.181Z,99730.41
2024-03-01T01:48:36.326Z,99723.78
2024-03-01T01:51:05.912Z,99720.72
2024-03-01T01:53:36.717Z,99731.97
2024-03-01T01:56:07.248Z,99723.53
2024-03-01T01:58:37.150Z,99726.34
2024-03-01T02:01:10.196Z,99730.94
2024-03-01T02:03:41.670Z,99731.94
2024-03-01T02:06:10.793Z,99731.69
2024-03-01T02:08:42.712Z,99731.94
2024-03-01T02:11:12.597Z,99721.47
2024-03-01T02:13:41.662Z,99736.03
2024-03-01T02:16:10.651Z,99740.91
2024-03-01T02:18:39.846Z,99742.19
2024-03-01T02:21:12.800Z,99741.16
2024-03-01T02:23:41.839Z,99741.16
2024-03-01T02:26:10.904Z,99740.63
2024-03-01T02:28:46.809Z,99743.44
2024-03-01T02:31:16.970Z,99749.03
2024-03-01T02:33:45.901Z,99754.41
2024-03-01T02:36:14.855Z,99766.66
2024-03-01T02:38:44.189Z,99765.88
2024-03-01T02:41:13.058Z,99759.97
2024-03-01T02:43:42.005Z,99765.34
2024-03-01T02:46:11.052Z,99750.53
2024-03-01T02:48:40.060Z,99763.28
2024-03-01T02:51:08.987Z,99757.66
2024-03-01T02:53:38.260Z,99755.81
2024-03-01T02:56:07.419Z,99756.59
2024-03-01T02:58:36.576Z,99744.03
2024-03-01T03:01:06.524Z,99750.13
2024-03-01T03:03:35.364Z,99747.50
2024-03-01T03:06:04.245Z,99739.03
2024-03-01T03:08:33.066Z,99739.72
2024-03-01T03:11:01.966Z,99730.47
2024-03-01T03:13:31.098Z,99728.84
2024-03-01T03:16:00.086Z,99728.75
2024-03-01T03:18:28.926Z,99724.09
2024-03-01T03:20:57.835Z,99729.69
2024-03-01T03:23:27.063Z,99717.34
2024-03-01T03:25:56.079Z,99704.50
2024-03-01T03:28:25.254Z,99705.47
2024-03-01T03:30:54.211Z,99712.63
2024-03-01T03:33:23.296Z,99708.16
2024-03-01T03:35:52.257Z,99698.03
2024-03-01T03:38:21.115Z,99701.59
2024-03-01T03:40:49.898Z,99691.53
2024-03-01T03:43:18.974Z,99687.88
2024-03-01T03:45:48.234Z,99691.09
2024-03-01T03:48:17.171Z,99677.72
2024-03-01T03:50:46.287Z,99681.47
2024-03-01T03:53:15.215Z,99680.63
2024-03-01T03:55:44.212Z,99670.34
2024-03-01T03:58:13.222Z,99667.22
2024-03-01T04:00:42.137Z,99664.09
2024-03-01T04:03:10.963Z,99670.75
2024-03-01T04:05:39.990Z,99666.63
2024-03-01T04:08:09.032Z,99659.16
2024-03-01T04:10:37.962Z,99654.50
2024-03-01T04:13:08.451Z,99642.44
2024-03-01T04:15:39.728Z,99638.47
2024-03-01T04:18:12.835Z,99639.16
2024-03-01T04:20:41.923Z,99632.69
2024-03-01T04:23:10.932Z,99625.97
2024-03-01T04:25:42.494Z,99634.09
2024-03-01T04:28:11.437Z,99625.09
2024-03-01T04:30:40.759Z,99615.88
2024-03-01T04:33:09.655Z,99611.75
2024-03-01T04:35:38.519Z,99607.56
2024-03-01T04:38:08.233Z,99603.03
2024-03-01T04:40:38.425Z,99598.81
2024-03-01T04:43:11.072Z,99593.63
2024-03-01T04:45:40.861Z,99594.59
2024-03-01T04:48:10.464Z,99591.00
2024-03-01T04:50:40.582Z,99590.47
2024-03-01T04:53:09.817Z,99585.47
2024-03-01T04:55:38.901Z,99585.16
2024-03-01T04:58:07.775Z,99578.63
2024-03-01T05:00:37.463Z,99570.09
2024-03-01T05:03:09.289Z,99564.09
2024-03-01T05:05:38.259Z,99553.69
2024-03-01T05:08:09.640Z,99543.25
2024-03-01T05:10:38.729Z,99545.88
2024-03-01T05:13:08.482Z,99541.84
2024-03-01T05:15:37.356Z,99536.06
2024-03-01T05:18:08.151Z,99535.41
2024-03-01T05:20:37.175Z,99528.34
2024-03-01T05:23:06.309Z,99524.06
2024-03-01T05:25:35.211Z,99517.00
2024-03-01T05:28:04.835Z,99520.47
2024-03-01T05:30:47.371Z,99507.53
2024-03-01T05:33:21.208Z,99502.81
2024-03-01T05:35:50.591Z,99496.28
2024-03-01T05:38:19.578Z,99500.81
2024-03-01T05:40:52.546Z,99497.84
2024-03-01T05:43:25.116Z,99491.09
2024-03-01T05:45:54.361Z,99493.25
2024-03-01T05:48:23.511Z,99486.69
2024-03-01T05:50:52.598Z,99482.56
2024-03-01T05:53:21.746Z,99475.78
2024-03-01T05:55:50.883Z,99471.66
2024-03-01T05:58:21.534Z,99459.09
2024-03-01T06:00:50.728Z,99460.81
2024-03-01T06:03:19.913Z,99450.47
2024-03-01T06:05:48.817Z,99458.53
2024-03-01T06:08:17.841Z,99446.47
2024-03-01T06:10:47.089Z,99445.16
2024-03-01T06:13:16.138Z,99441.78
2024-03-01T06:15:45.193Z,99429.69
2024-03-01T06:18:14.172Z,99427.28
2024-03-01T06:20:43.080Z,99427.13
2024-03-01T06:23:12.082Z,99422.63
2024-03-01T06:25:41.192Z,99410.94
2024-03-01T06:28:10.191Z,99404.16
2024-03-01T06:30:41.771Z,99407.00
2024-03-01T06:33:11.264Z,99402.84
2024-03-01T06:35:40.351Z,99400.56
2024-03-01T06:38:09.294Z,99398.13
2024-03-01T06:40:38.367Z,99391.91
2024-03-01T06:43:07.314Z,99388.75
2024-03-01T06:45:36.370Z,99377.63
2024-03-01T06:48:05.633Z,99377.81
2024-03-01T06:50:37.662Z,99360.81
2024-03-01T06:53:06.729Z,99365.38
2024-03-01T06:55:35.601Z,99359.13
2024-03-01T06:58:04.810Z,99342.72
2024-03-01T07:00:34.803Z,99342.16
2024-03-01T07:03:05.428Z,99334.81
2024-03-01T07:05:34.282Z,99334.81
2024-03-01T07:08:03.478Z,99326.31
2024-03-01T07:10:33.759Z,99318.56
2024-03-01T07:13:02.872Z,99318.94
2024-03-01T07:15:32.868Z,99313.28
2024-03-01T07:18:02.674Z,99307.41
2024-03-01T07:20:31.578Z,99304.59
2024-03-01T07:23:00.550Z,99296.66
2024-03-01T07:25:29.364Z,99287.59
2024-03-01T07:27:58.471Z,99291.19
2024-03-01T07:30:27.505Z,99282.69
2024-03-01T07:32:56.492Z,99281.03
2024-03-01T07:35:25.691Z,99280.81
2024-03-01T07:37:55.200Z,99267.97
2024-03-01T07:40:24.705Z,99274.78
2024-03-01T07:42:53.763Z,99271.22
2024-03-01T07:45:23.133Z,99266.28
2024-03-01T07:47:52.164Z,99259.81
2024-03-01T07:50:22.536Z,99257.19
2024-03-01T07:52:51.746Z,99256.78
2024-03-01T07:55:20.678Z,99245.06
2024-03-01T07:57:50.909Z,99236.72
2024-03-01T08:00:20.427Z,99234.25
2024-03-01T08:03:03.352Z,99234.81
2024-03-01T08:05:32.417Z,99232.19
2024-03-01T08:08:01.372Z,99226.13
2024-03-01T08:10:37.467Z,99223.66
2024-03-01T08:13:06.964Z,99227.06
2024-03-01T08:15:37.640Z,99214.78
2024-03-01T08:18:18.363Z,99222.31
2024-03-01T08:20:59.388Z,99216.28
2024-03-01T08:23:30.321Z,99219.09
2024-03-01T08:26:00.373Z,99218.34
2024-03-01T08:28:34.065Z,99216.84
2024-03-01T08:31:12.125Z,99218.34
2024-03-01T08:33:42.761Z,99218.53
2024-03-01T08:36:12.144Z,99215.53
2024-03-01T08:38:44.740Z,99207.25
2024-03-01T08:41:15.082Z,99207.44
2024-03-01T08:43:45.708Z,99206.13
2024-03-01T08:46:33.426Z,99209.53
2024-03-01T08:49:24.086Z,99203.50
2024-03-01T08:51:53.146Z,99212.19
2024-03-01T08:54:25.307Z,99206.00
2024-03-01T08:57:08.007Z,99206.53
2024-03-01T08:59:50.857Z,99212.94
2024-03-01T09:02:48.611Z,99207.28
2024-03-01T09:05:18.438Z,99205.00
2024-03-01T09:07:50.376Z,99215.25
2024-03-01T09:10:39.493Z,99212.94
2024-03-01T09:13:11.491Z,99214.25
2024-03-01T09:15:45.376Z,99216.34
2024-03-01T09:18:45.474Z,99214.81
2024-03-01T09:21:33.056Z,99205.38
2024-03-01T09:24:02.246Z,99209.91
2024-03-01T09:26:31.942Z,99210.28
2024-03-01T09:29:05.533Z,99204.22
2024-03-01T09:31:36.220Z,99212.53
2024-03-01T09:34:13.096Z,99214.19
2024-03-01T09:36:42.427Z,99205.28
2024-03-01T09:39:14.574Z,99204.91
2024-03-01T09:41:52.718Z,99210.69
2024-03-01T09:44:28.458Z,99213.69
2024-03-01T09:47:03.134Z,99202.53
2024-03-01T09:50:00.325Z,99211.19
2024-03-01T09:52:43.455Z,99214.16
2024-03-01T09:55:31.519Z,99214.34
2024-03-01T09:58:20.427Z,99213.53
2024-03-01T10:01:02.485Z,99218.78
2024-03-01T10:03:43.123Z,99225.91
2024-03-01T10:06:49.856Z,99223.97
2024-03-01T10:09:50.614Z,99225.97
2024-03-01T10:12:40.668Z,99222.34
2024-03-01T10:15:40.211Z,99223.03
2024-03-01T10:18:21.228Z,99226.75
2024-03-01T10:21:29.980Z,99211.47
2024-03-01T10:24:37.578Z,99221.81
2024-03-01T10:27:29.028Z,99220.09
2024-03-01T10:30:12.747Z,99212.72
2024-03-01T10:33:12.792Z,99216.09
2024-03-01T10:36:09.644Z,99214.38
2024-03-01T10:39:12.438Z,99204.16
2024-03-01T10:42:03.616Z,99200.91
2024-03-01T10:44:46.271Z,99207.69
2024-03-01T10:47:25.406Z,99208.53
2024-03-01T10:50:15.445Z,99209.66
2024-03-01T10:53:26.856Z,99202.63
2024-03-01T10:56:11.199Z,99216.88
2024-03-01T10:59:00.105Z,99223.41
2024-03-01T11:01:49.231Z,99219.41
2024-03-01T11:04:46.827Z,99230.28
2024-03-01T11:07:40.973Z,99236.06
2024-03-01T11:10:18.640Z,99236.19
2024-03-01T11:12:50.001Z,99237.06
2024-03-01T11:15:22.401Z,99232.31
2024-03-01T11:17:53.501Z,99240.88
2024-03-01T11:20:31.816Z,99240.44
2024-03-01T11:23:32.239Z,99243.41
2024-03-01T11:26:09.953Z,99246.78
2024-03-01T11:28:44.705Z,99235.78
2024-03-01T11:31:33.185Z,99239.50
2024-03-01T11:34:08.151Z,99238.63
2024-03-01T11:36:54.946Z,99234.84
2024-03-01T11:40:06.474Z,99237.25
2024-03-01T11:42:47.165Z,99241.69
2024-03-01T11:45:26.818Z,99248.72
2024-03-01T11:48:35.212Z,99250.91
2024-03-01T11:51:43.796Z,99248.97
2024-03-01T11:54:44.433Z,99256.75
2024-03-01T11:57:38.196Z,99270.16
2024-03-01T12:00:26.134Z,99275.38
2024-03-01T12:03:24.630Z,99281.34
2024-03-01T12:06:09.796Z,99271.13
2024-03-01T12:08:56.692Z,99279.38
2024-03-01T12:11:43.626Z,99281.22
2024-03-01T12:14:18.069Z,99288.47
2024-03-01T12:17:06.356Z,99298.56
2024-03-01T12:19:51.306Z,99302.44
2024-03-01T12:22:38.159Z,99317.06
2024-03-01T12:25:08.085Z,99312.50
2024-03-01T12:27:58.000Z,99308.16
2024-03-01T12:30:32.532Z,99306.41
2024-03-01T12:33:15.275Z,99312.59
2024-03-01T12:35:58.500Z,99322.13
2024-03-01T12:38:33.277Z,99312.69
2024-03-01T12:41:22.718Z,99326.56
2024-03-01T12:44:03.397Z,99331.97
2024-03-01T12:46:50.766Z,99335.06
2024-03-01T12:49:43.779Z,99341.75
2024-03-01T12:52:15.770Z,99351.28
2024-03-01T12:55:01.074Z,99346.72
2024-03-01T12:57:41.336Z,99355.69
2024-03-01T13:00:17.982Z,99355.25
2024-03-01T13:03:15.543Z,99352.75
2024-03-01T13:05:45.327Z,99348.94
2024-03-01T13:08:29.743Z,99350.25
2024-03-01T13:11:04.403Z,99348.72
2024-03-01T13:13:36.365Z,99351.31
2024-03-01T13:16:12.675Z,99362.56
2024-03-01T13:19:03.710Z,99355.97
2024-03-01T13:21:42.424Z,99357.75
2024-03-01T13:24:33.109Z,99369.31
2024-03-01T13:27:30.849Z,99375.50
2024-03-01T13:30:07.168Z,99378.94
2024-03-01T13:33:04.856Z,99387.38
2024-03-01T13:35:35.715Z,99400.47
2024-03-01T13:38:12.149Z,99403.03
2024-03-01T13:40:49.558Z,99409.22
2024-03-01T13:43:46.239Z,99406.41
2024-03-01T13:46:26.064Z,99412.78
2024-03-01T13:48:55.503Z,99419.72
2024-03-01T13:51:27.290Z,99425.88
2024-03-01T13:53:57.980Z,99420.00
2024-03-01T13:56:28.263Z,99423.34
2024-03-01T13:58:57.817Z,99429.75
2024-03-01T14:01:27.972Z,99419.03
2024-03-01T14:03:59.125Z,99426.69
2024-03-01T14:06:28.277Z,99431.56
2024-03-01T14:09:13.974Z,99435.16
2024-03-01T14:11:43.998Z,99436.41
2024-03-01T14:14:13.958Z,99431.31
2024-03-01T14:16:49.386Z,99443.88
2024-03-01T14:19:19.608Z,99440.28
2024-03-01T14:21:48.621Z,99435.41
2024-03-01T14:24:17.907Z,99433.91
2024-03-01T14:26:47.542Z,99444.41
2024-03-01T14:29:16.800Z,99439.53
2024-03-01T14:32:16.569Z,99445.16
2024-03-01T14:34:45.609Z,99460.00
2024-03-01T14:37:25.785Z,99462.53
2024-03-01T14:39:54.775Z,99466.66
2024-03-01T14:42:25.014Z,99472.53
2024-03-01T14:44:59.208Z,99463.84
2024-03-01T14:47:30.382Z,99461.28
2024-03-01T14:50:05.942Z,99454.38
2024-03-01T14:52:34.917Z,99464.88
2024-03-01T14:55:05.331Z,99464.88
2024-03-01T14:57:34.850Z,99467.69
2024-03-01T15:00:03.841Z,99461.03
2024-03-01T15:02:33.036Z,99453.34
2024-03-01T15:05:02.113Z,99462.84
2024-03-01T15:07:31.049Z,99462.09
2024-03-01T15:10:05.027Z,99456.22
2024-03-01T15:12:34.149Z,99455.75
2024-03-01T15:15:12.734Z,99465.25
2024-03-01T15:17:42.194Z,99461.97
2024-03-01T15:20:12.476Z,99463.56
2024-03-01T15:22:42.848Z,99462.53
2024-03-01T15:25:13.398Z,99480.72
2024-03-01T15:27:42.321Z,99479.72
2024-03-01T15:30:14.005Z,99482.28
2024-03-01T15:32:42.979Z,99481.53
2024-03-01T15:35:11.934Z,99471.56
2024-03-01T15:37:41.513Z,99474.38
2024-03-01T15:40:14.895Z,99470.81
2024-03-01T15:42:44.224Z,99475.66
2024-03-01T15:45:14.914Z,99464.94
2024-03-01T15:47:44.208Z,99467.00
2024-03-01T15:50:14.849Z,99462.88
2024-03-01T15:52:45.412Z,99466.75
2024-03-01T15:55:14.302Z,99456.03
2024-03-01T15:57:44.506Z,99468.03
2024-03-01T16:00:18.307Z,99462.72
2024-03-01T16:02:48.122Z,99475.25
2024-03-01T16:05:20.103Z,99471.44
2024-03-01T16:07:53.568Z,99465.34
2024-03-01T16:10:27.104Z,99472.75
2024-03-01T16:13:03.575Z,99477.38
2024-03-01T16:15:32.636Z,99481.25
2024-03-01T16:18:04.746Z,99473.84
2024-03-01T16:20:34.298Z,99480.50
2024-03-01T16:23:06.457Z,99471.34
2024-03-01T16:25:35.924Z,99484.66
2024-03-01T16:28:06.827Z,99477.03
2024-03-01T16:30:37.237Z,99489.56
2024-03-01T16:33:06.964Z,99482.66
2024-03-01T16:35:48.580Z,99480.38
2024-03-01T16:38:17.481Z,99469.69
2024-03-01T16:40:46.346Z,99490.13
2024-03-01T16:43:47.755Z,99498.09
2024-03-01T16:46:37.893Z,99478.69
2024-03-01T16:49:14.751Z,99486.66
2024-03-01T16:51:50.126Z,99496.13
2024-03-01T16:54:42.204Z,99499.69
2024-03-01T16:57:13.608Z,99494.34
2024-03-01T16:59:43.169Z,99509.44
2024-03-01T17:02:29.266Z,99511.53
2024-03-01T17:05:00.290Z,99513.84
2024-03-01T17:07:50.392Z,99509.53
2024-03-01T17:10:38.182Z,99509.00
2024-03-01T17:13:07.592Z,99508.50
2024-03-01T17:15:36.571Z,99509.28
2024-03-01T17:18:13.475Z,99513.13
2024-03-01T17:20:45.103Z,99512.38
2024-03-01T17:23:14.108Z,99513.66
2024-03-01T17:25:43.913Z,99499.66
2024-03-01T17:28:13.308Z,99499.41
2024-03-01T17:30:42.203Z,99501.69
2024-03-01T17:33:13.799Z,99498.41
2024-03-01T17:35:42.945Z,99501.47
2024-03-01T17:38:12.362Z,99502.50
2024-03-01T17:40:41.360Z,99506.09
2024-03-01T17:43:11.616Z,99496.41
2024-03-01T17:45:40.666Z,99501.53
2024-03-01T17:48:09.853Z,99501.78
2024-03-01T17:50:38.880Z,99477.78
2024-03-01T17:53:09.758Z,99488.75
2024-03-01T17:55:39.758Z,99486.22
2024-03-01T17:58:08.962Z,99481.38
2024-03-01T18:00:38.024Z,99472.72
2024-03-01T18:03:07.910Z,99462.53
2024-03-01T18:05:37.057Z,99469.16
2024-03-01T18:08:06.776Z,99470.69
2024-03-01T18:10:35.762Z,99468.91
2024-03-01T18:13:04.990Z,99480.91
2024-03-01T18:15:34.010Z,99475.81
2024-03-01T18:18:03.276Z,99475.81
2024-03-01T18:20:32.376Z,99478.88
2024-03-01T18:23:01.230Z,99474.28
2024-03-01T18:25:30.061Z,99480.41
2024-03-01T18:27:58.984Z,99481.41
2024-03-01T18:30:27.930Z,99481.69
2024-03-01T18:32:56.887Z,99485.50
2024-03-01T18:35:27.438Z,99469.72
2024-03-01T18:37:58.225Z,99477.06
2024-03-01T18:40:27.103Z,99470.66
2024-03-01T18:42:56.037Z,99475.50
2024-03-01T18:45:25.005Z,99470.16
2024-03-01T18:47:55.422Z,99458.44
2024-03-01T18:50:25.119Z,99461.75
2024-03-01T18:52:54.035Z,99463.53
2024-03-01T18:55:23.397Z,99463.78
2024-03-01T18:57:53.073Z,99461.50
2024-03-01T19:00:25.678Z,99468.63
2024-03-01T19:02:55.620Z,99465.56
2024-03-01T19:05:24.596Z,99467.06
2024-03-01T19:07:53.438Z,99463.50
2024-03-01T19:10:22.865Z,99460.72
2024-03-01T19:12:51.901Z,99460.72
2024-03-01T19:15:20.724Z,99458.91
2024-03-01T19:17:49.704Z,99455.84
2024-03-01T19:20:18.661Z,99459.16
2024-03-01T19:22:47.841Z,99456.13
2024-03-01T19:25:16.963Z,99463.25
2024-03-01T19:27:47.257Z,99467.31
2024-03-01T19:30:18.313Z,99466.28
2024-03-01T19:32:48.909Z,99468.34
2024-03-01T19:35:17.973Z,99461.19
2024-03-01T19:37:46.896Z,99466.81
2024-03-01T19:40:16.769Z,99463.75
2024-03-01T19:42:46.575Z,99462.97
2024-03-01T19:45:15.386Z,99467.56
2024-03-01T19:47:46.268Z,99461.41
2024-03-01T19:50:15.389Z,99457.34
2024-03-01T19:52:44.576Z,99456.31
2024-03-01T19:55:13.568Z,99454.53
2024-03-01T19:57:42.452Z,99449.44
2024-03-01T20:00:11.660Z,99449.16
2024-03-01T20:02:40.638Z,99447.63
2024-03-01T20:05:09.889Z,99444.81
2024-03-01T20:07:38.974Z,99442.28
2024-03-01T20:10:08.485Z,99443.53
2024-03-01T20:12:38.122Z,99451.19
2024-03-01T20:15:08.106Z,99455.50
2024-03-01T20:17:37.170Z,99459.56
2024-03-01T20:20:06.309Z,99454.75
2024-03-01T20:22:35.647Z,99453.22
2024-03-01T20:25:05.389Z,99452.94
2024-03-01T20:27:35.138Z,99458.53
2024-03-01T20:30:04.123Z,99449.13
2024-03-01T20:32:33.124Z,99452.44
2024-03-01T20:35:02.056Z,99456.00
2024-03-01T20:37:31.097Z,99456.50
2024-03-01T20:40:00.029Z,99456.25
2024-03-01T20:42:29.077Z,99446.78
2024-03-01T20:44:57.939Z,99445.75
2024-03-01T20:47:27.181Z,99436.84
2024-03-01T20:49:56.142Z,99442.94
2024-03-01T20:52:25.695Z,99456.19
2024-03-01T20:54:54.749Z,99449.56
2024-03-01T20:57:25.926Z,99450.56
2024-03-01T20:59:56.266Z,99451.84
2024-03-01T21:02:25.354Z,99458.44
2024-03-01T21:04:54.699Z,99477.25
2024-03-01T21:07:23.694Z,99479.03
2024-03-01T21:09:52.707Z,99482.84
2024-03-01T21:12:21.834Z,99482.84
2024-03-01T21:14:50.718Z,99485.34
2024-03-01T21:17:19.816Z,99483.81
2024-03-01T21:19:48.847Z,99486.34
2024-03-01T21:24:52.272Z,99497.00
2024-03-01T21:27:21.169Z,99488.09
2024-03-01T21:29:50.228Z,99479.69
2024-03-01T21:32:24.857Z,99484.25
2024-03-01T21:34:54.319Z,99483.25
2024-03-01T21:37:24.333Z,99484.75
2024-03-01T21:39:53.152Z,99491.59
2024-03-01T21:42:22.059Z,99502.78
2024-03-01T21:44:51.346Z,99497.94
2024-03-01T21:47:20.886Z,99507.84
2024-03-01T21:49:50.000Z,99512.69
2024-03-01T21:52:19.125Z,99519.47
2024-03-01T21:54:49.248Z,99535.31
2024-03-01T21:57:18.413Z,99531.00
2024-03-01T21:59:47.790Z,99532.53
2024-03-01T22:02:16.932Z,99540.91
2024-03-01T22:04:45.913Z,99549.81
2024-03-01T22:07:14.969Z,99551.06
2024-03-01T22:09:43.836Z,99556.66
2024-03-01T22:12:12.889Z,99561.44
2024-03-01T22:14:41.852Z,99571.84
2024-03-01T22:17:12.662Z,99571.84
2024-03-01T22:19:41.664Z,99575.16
2024-03-01T22:22:10.780Z,99577.69
2024-03-01T22:24:41.897Z,99593.19
2024-03-01T22:27:10.944Z,99598.53
2024-03-01T22:29:40.108Z,99606.41
2024-03-01T22:32:09.057Z,99600.81
2024-03-01T22:34:38.089Z,99610.47
2024-03-01T22:37:07.021Z,99610.22
2024-03-01T22:39:36.301Z,99617.06
2024-03-01T22:42:05.453Z,99626.72
2024-03-01T22:44:34.621Z,99622.88
2024-03-01T22:47:03.830Z,99625.41
2024-03-01T22:49:32.694Z,99634.56
2024-03-01T22:52:01.896Z,99641.44
2024-03-01T22:54:31.138Z,99648.00
2024-03-01T22:57:00.188Z,99645.72
2024-03-01T23:00:28.745Z,99651.78
2024-03-01T23:02:58.570Z,99659.91
2024-03-01T23:06:00.706Z,99658.09
2024-03-01T23:08:36.086Z,99665.72
2024-03-01T23:11:09.823Z,99662.63
2024-03-01T23:13:43.412Z,99666.41
2024-03-01T23:16:12.495Z,99661.31
2024-03-01T23:18:41.402Z,99673.75
2024-03-01T23:21:11.185Z,99677.81
2024-03-01T23:23:40.622Z,99675.50
2024-03-01T23:26:09.665Z,99676.78
2024-03-01T23:28:38.972Z,99680.81
2024-03-01T23:31:08.184Z,99690.47
2024-03-01T23:33:37.185Z,99691.72
2024-03-01T23:36:12.650Z,99700.13
2024-03-01T23:38:41.647Z,99700.63
2024-03-01T23:41:11.380Z,99701.88
2024-03-01T23:43:40.631Z,99707.97
2024-03-01T23:46:09.424Z,99702.84
2024-03-01T23:48:40.866Z,99714.03
2024-03-01T23:51:11.252Z,99724.94
2024-03-01T23:53:40.253Z,99723.41
2024-03-01T23:56:09.261Z,99731.31
2024-03-01T23:58:42.435Z,99731.78
